• Join FlightAware (Why Join?)
  • Login
  • US Flag 
01:42PM EDT


 

Airport Tracker/Info


-or-


 

Live Flight TrackerFlight Track Log ✈ N173AA ✈ 20-Apr-2013 ✈ KABE - KPGV

Flight Track Log - Related Links

Times and Time Zones

All times are in EDT time to prevent confusion due to time zone crossing. See the N173AA flight status page for this flight to view local times or setup timezone preferences in your user account.

Time Position Orientation Groundspeed Altitude Reporting Facility
EDT Latitude Longitude Course Direction KTS MPH feet Rate Location/Type
01:12AM 40.6128 -75.4978 224° Southwest 168 193 3,500  Level New York Center
01:14AM 40.5431 -75.5722 219° Southwest 162 186 32,000 1,980 Climbing New York Center
01:15AM 40.4997 -75.6128 215° Southwest 340 391 9,500 -10,140 Descending New York Center
01:16AM 40.4644 -75.6622 227° Southwest 219 252 11,400 1,800 Climbing New York Center
01:17AM 40.4005 -75.9090 224° Southwest  Level FlightAware Approximate
01:17AM 40.4289 -75.7169 230° Southwest 203 234 13,100  Level New York Center
01:18AM 40.3978 -75.7611 227° Southwest 197 227 14,800 1,860 Climbing New York Center
01:19AM 40.3619 -75.8156 229° Southwest 191 220 16,800 1,740 Climbing New York Center
01:20AM 40.3308 -75.8625 229° Southwest 181 208 18,300 1,320 Climbing New York Center
01:21AM 40.3017 -75.9119 232° Southwest 188 216 19,600 1,380 Climbing New York Center
01:22AM 40.2744 -75.9644 236° Southwest 188 216 21,200 1,500 Climbing New York Center
01:23AM 40.2514 -76.0144 239° Southwest 178 205 22,600 1,380 Climbing New York Center
01:24AM 40.2283 -76.0589 236° Southwest 168 193 24,000 1,140 Climbing New York Center
01:25AM 40.2033 -76.1086 237° Southwest 162 186 25,000 1,020 Climbing New York Center
01:26AM 40.1819 -76.1667 244° Southwest 167 192 26,100 1,140 Climbing New York Center
01:27AM 40.1625 -76.2278 247° West 167 192 27,300 1,080 Climbing New York Center
01:28AM 40.1344 -76.2878 239° Southwest 184 212 28,300 960 Climbing New York Center
01:30AM 40.0819 -76.3778 233° Southwest 172 198 30,200 960 Climbing Washington Center
01:31AM 40.0503 -76.4208 226° Southwest 167 192 31,200 900 Climbing Washington Center
01:32AM 40.0189 -76.4611 225° Southwest 161 185 32,000 360 Climbing Washington Center
01:33AM 39.9811 -76.4958 215° Southwest 166 191 32,000  Level Washington Center
01:34AM 39.9328 -76.5411 216° Southwest 188 216 32,000  Level Washington Center
01:35AM 39.8803 -76.5836 212° Southwest 216 249 32,000  Level Washington Center
01:36AM 39.8322 -76.6317 218° Southwest 224 258 32,000  Level Washington Center
01:37AM 39.7817 -76.6850 219° Southwest 229 264 32,000  Level Washington Center
01:38AM 39.7333 -76.7356 219° Southwest 229 264 32,000  Level Washington Center
01:39AM 39.6806 -76.7858 216° Southwest 229 264 32,000 -60 Level Washington Center
01:40AM 39.6322 -76.8364 219° Southwest 229 264 31,900  Descending Washington Center
01:41AM 39.5817 -76.8919 220° Southwest 229 264 32,000  Climbing Washington Center
01:42AM 39.5331 -76.9422 219° Southwest 229 264 31,900  Descending Washington Center
01:43AM 39.4806 -76.9922 216° Southwest 229 264 32,000 60 Climbing Washington Center
01:44AM 39.4136 -76.9964 183° South 221 254 32,100 -360 Climbing Washington Center
01:45AM 39.3428 -77.0006 183° South 240 276 31,300 -840 Descending Washington Center
01:46AM 39.2697 -77.0072 184° South 256 295 30,500 -960 Descending Washington Center
01:47AM 39.1947 -77.0083 181° South 268 308 29,400 -900 Descending Washington Center
01:48AM 39.1217 -77.0122 182° South 268 308 28,700 -720 Descending Washington Center
01:49AM 39.0467 -77.0136 181° South 268 308 28,000 -360 Descending Washington Center
01:50AM 38.9739 -77.0147 181° South 268 308 28,000  Level Washington Center
01:51AM 38.8986 -77.0186 182° South 273 314 28,000  Level Washington Center
01:52AM 38.8278 -77.0281 186° South 273 314 28,000  Level Washington Center
01:53AM 38.7547 -77.0372 186° South 273 314 28,000  Level Washington Center
01:54AM 38.6817 -77.0436 184° South 273 314 28,000  Level Washington Center
01:55AM 38.6064 -77.0528 185° South 273 314 28,000  Level Washington Center
01:56AM 38.5353 -77.0647 187° South 273 314 28,000  Level Washington Center
01:57AM 38.4642 -77.0792 189° South 273 314 28,000  Level Washington Center
01:58AM 38.3911 -77.0964 190° South 273 314 28,000  Level Washington Center
01:59AM 38.3200 -77.1108 189° South 273 314 28,000  Level Washington Center
02:00AM 38.2428 -77.1250 188° South 273 314 28,000  Level Washington Center
02:01AM 38.1694 -77.1367 187° South 273 314 28,000  Level Washington Center
02:02AM 38.0986 -77.1486 188° South 273 314 28,000  Level Washington Center
02:03AM 38.0233 -77.1469 179° South 273 314 28,000  Level Washington Center
02:04AM 37.9506 -77.1456 179° South 273 314 28,000  Level Washington Center
02:05AM 37.8733 -77.1414 178° South 273 314 28,000  Level Washington Center
02:06AM 37.7983 -77.1422 181° South 243 280 28,000  Level Washington Center
02:07AM 37.7169 -77.1458 182° South 270 311 28,000  Level Washington Center
02:08AM 37.6417 -77.1522 184° South 276 318 28,000  Level Washington Center
02:09AM 37.5686 -77.1586 184° South 270 311 28,000  Level Washington Center
02:10AM 37.4933 -77.1703 187° South 270 311 28,000  Level Washington Center
02:11AM 37.4203 -77.1817 187° South 275 316 28,000 -120 Level Washington Center
02:12AM 37.3428 -77.1958 188° South 280 322 27,800 -420 Descending Washington Center
02:13AM 37.2697 -77.2072 187° South 285 328 27,200 -600 Descending Washington Center
02:14AM 37.1883 -77.2161 185° South 296 341 26,600 -600 Descending Washington Center
02:15AM 37.1025 -77.2300 187° South 301 346 26,100 -600 Descending Washington Center
02:16AM 37.0208 -77.2439 188° South 306 352 25,400 -660 Descending Washington Center
02:17AM 36.9394 -77.2550 186° South 306 352 24,800 -600 Descending Washington Center
02:18AM 36.8578 -77.2714 189° South 306 352 24,200 -420 Descending Washington Center
02:19AM 36.7783 -77.2828 187° South 301 346 24,000 -240 Descending Washington Center
02:20AM 36.6989 -77.2914 185° South 293 337 23,800 -540 Descending Washington Center
02:21AM 36.6156 -77.2972 183° South 293 337 23,000 -840 Descending Washington Center
02:22AM 36.5342 -77.3006 182° South 293 337 22,200 -1,740 Descending Washington Center
02:23AM 36.4525 -77.3042 182° South 281 323 19,600 -2,640 Descending Washington Center
02:24AM 36.3817 -77.3075 182° South 274 315 17,000 -2,280 Descending Washington Center
02:25AM 36.3128 -77.3086 181° South 264 304 15,100 -1,800 Descending Washington Center
02:26AM 36.2481 -77.3100 181° South 251 289 13,400 -1,260 Descending Washington Center
02:27AM 36.1856 -77.3136 183° South 240 276 12,600 -960 Descending Washington Center
02:28AM 36.1311 -77.3150 181° South 227 261 11,500 -1,140 Descending Washington Center
02:29AM 36.0622 -77.3136 179° South 233 268 10,400 -1,200 Descending Washington Center
02:30AM 35.9936 -77.3094 177° South 240 276 9,200 -1,260 Descending Washington Center
02:31AM 35.9308 -77.3158 185° South 240 276 7,900 -1,560 Descending Washington Center
02:32AM 35.8703 -77.3222 185° South 230 265 6,100 -1,680 Descending Washington Center
02:33AM 35.8075 -77.3386 192° South 230 265 4,600 -1,500 Descending Washington Center